Latest Weather Observations for Melville Water

IDW60901

Issued at 2:15 pm WST Tuesday 23 September 2014 (issued every 10 minutes, with the page automatically refreshed every 10 minutes)

About weather observations | Map of Perth area stations | Latest observations for Perth area | Other Formats
Station Details ID: 009091 Name: INNER DOLPHIN PYLON Lat: -31.99 Lon: 115.83 Height: 0.0 m
Data from the previous 72 hours. | See also: Recent months for locations in Western Australia
Date/Time
WST
Tmp

°C
App
Tmp
°C
Dew
Point
°C
Rel
Hum
%
Delta-T

°C
Wind Press
QNH
hPa
Press
MSL
hPa
Rain
since
9 am
mm
Dir
 
Spd
km/h
Gust
km/h
Spd
kts
Gust
kts
23/02:00pm - - - - - SSW 9 15 5 8 - - -
23/01:30pm - - - - - S 9 13 5 7 - - -
23/01:00pm - - - - - SW 7 11 4 6 - - -
23/12:30pm - - - - - SW 4 7 2 4 - - -
23/12:00pm - - - - - SSE 6 9 3 5 - - -
23/11:30am - - - - - S 4 11 2 6 - - -
23/11:00am - - - - - S 7 13 4 7 - - -
23/10:30am - - - - - ESE 7 13 4 7 - - -
23/10:00am - - - - - E 2 4 1 2 - - -
23/09:30am - - - - - E 6 7 3 4 - - -
23/09:00am - - - - - E 4 6 2 3 - - -
23/08:30am - - - - - E 2 4 1 2 - - -
23/08:00am - - - - - E 4 6 2 3 - - -
23/07:30am - - - - - ENE 6 9 3 5 - - -
23/07:00am - - - - - ENE 9 11 5 6 - - -
23/06:30am - - - - - ENE 7 9 4 5 - - -
23/06:00am - - - - - E 7 9 4 5 - - -
23/05:30am - - - - - E 7 9 4 5 - - -
23/05:00am - - - - - ENE 7 11 4 6 - - -
23/04:30am - - - - - E 7 9 4 5 - - -
23/04:00am - - - - - E 7 9 4 5 - - -
23/03:30am - - - - - ENE 6 9 3 5 - - -
23/03:00am - - - - - ESE 6 9 3 5 - - -
23/02:30am - - - - - SE 7 9 4 5 - - -
23/02:00am - - - - - ESE 7 11 4 6 - - -
23/01:30am - - - - - SSE 6 9 3 5 - - -
23/01:00am - - - - - SSE 11 13 6 7 - - -
23/12:30am - - - - - SSE 13 17 7 9 - - -
23/12:00am - - - - - S 17 19 9 10 - - -
 
Date/Time
WST
Tmp

°C
App
Tmp
°C
Dew
Point
°C
Rel
Hum
%
Delta-T

°C
Wind Press
QNH
hPa
Press
MSL
hPa
Rain
since
9 am
mm
Dir
 
Spd
km/h
Gust
km/h
Spd
kts
Gust
kts
22/11:30pm - - - - - SSE 19 24 10 13 - - -
22/11:00pm - - - - - SSE 17 22 9 12 - - -
22/10:30pm - - - - - S 20 24 11 13 - - -
22/10:00pm - - - - - S 20 24 11 13 - - -
22/09:30pm - - - - - S 20 28 11 15 - - -
22/09:00pm - - - - - S 20 24 11 13 - - -
22/08:30pm - - - - - S 19 22 10 12 - - -
22/08:00pm - - - - - S 17 20 9 11 - - -
22/07:30pm - - - - - S 19 22 10 12 - - -
22/07:00pm - - - - - S 24 30 13 16 - - -
22/06:30pm - - - - - SSW 28 35 15 19 - - -
22/06:00pm - - - - - SSW 32 39 17 21 - - -
22/05:30pm - - - - - SSW 32 41 17 22 - - -
22/05:00pm - - - - - SSW 33 41 18 22 - - -
22/04:30pm - - - - - SW 33 39 18 21 - - -
22/04:00pm - - - - - SW 32 39 17 21 - - -
22/03:30pm - - - - - SW 30 35 16 19 - - -
22/03:00pm - - - - - SW 26 32 14 17 - - -
22/02:30pm - - - - - SW 24 35 13 19 - - -
22/02:00pm - - - - - SW 24 33 13 18 - - -
22/01:30pm - - - - - SW 22 32 12 17 - - -
22/01:00pm - - - - - SW 22 32 12 17 - - -
22/12:30pm - - - - - SSW 24 30 13 16 - - -
22/12:00pm - - - - - SSW 22 32 12 17 - - -
22/11:30am - - - - - S 20 33 11 18 - - -
22/11:00am - - - - - SSW 22 32 12 17 - - -
22/10:30am - - - - - S 26 35 14 19 - - -
22/10:00am - - - - - S 24 39 13 21 - - -
22/09:30am - - - - - S 24 32 13 17 - - -
22/09:00am - - - - - S 24 32 13 17 - - -
22/08:30am - - - - - S 19 26 10 14 - - -
22/08:00am - - - - - S 17 22 9 12 - - -
22/07:30am - - - - - S 19 26 10 14 - - -
22/07:00am - - - - - SSW 24 32 13 17 - - -
22/06:30am - - - - - SSW 43 46 23 25 - - -
22/06:29am - - - - - SSW 43 46 23 25 - - -
22/06:00am - - - - - SSE 20 26 11 14 - - -
22/05:30am - - - - - SSW 17 20 9 11 - - -
22/05:18am - - - - - S 35 44 19 24 - - -
22/05:00am - - - - - S 15 24 8 13 - - -
22/04:30am - - - - - S 26 32 14 17 - - -
22/04:00am - - - - - S 19 26 10 14 - - -
22/03:30am - - - - - S 22 30 12 16 - - -
22/03:00am - - - - - S 26 33 14 18 - - -
22/02:30am - - - - - S 26 33 14 18 - - -
22/02:00am - - - - - S 22 28 12 15 - - -
22/01:30am - - - - - S 24 32 13 17 - - -
22/01:00am - - - - - S 24 28 13 15 - - -
22/12:30am - - - - - S 26 37 14 20 - - -
22/12:00am - - - - - S 26 39 14 21 - - -
 
Date/Time
WST
Tmp

°C
App
Tmp
°C
Dew
Point
°C
Rel
Hum
%
Delta-T

°C
Wind Press
QNH
hPa
Press
MSL
hPa
Rain
since
9 am
mm
Dir
 
Spd
km/h
Gust
km/h
Spd
kts
Gust
kts
21/11:30pm - - - - - S 28 41 15 22 - - -
21/11:00pm - - - - - S 32 44 17 24 - - -
21/10:30pm - - - - - S 26 35 14 19 - - -
21/10:00pm - - - - - SSW 32 41 17 22 - - -
21/09:30pm - - - - - S 32 41 17 22 - - -
21/09:00pm - - - - - S 32 43 17 23 - - -
21/08:30pm - - - - - S 33 39 18 21 - - -
21/08:00pm - - - - - S 35 52 19 28 - - -
21/07:30pm - - - - - S 41 59 22 32 - - -
21/07:10pm - - - - - S 43 61 23 33 - - -
21/07:00pm - - - - - SSW 46 63 25 34 - - -
21/06:30pm - - - - - SW 39 59 21 32 - - -
21/06:28pm - - - - - SW 37 59 20 32 - - -
21/06:10pm - - - - - SW 32 43 17 23 - - -
21/06:00pm - - - - - W 20 24 11 13 - - -
21/05:30pm - - - - - NW 24 39 13 21 - - -
21/05:00pm - - - - - N 15 19 8 10 - - -
21/04:30pm - - - - - N 19 24 10 13 - - -
21/04:00pm - - - - - N 13 19 7 10 - - -
21/03:30pm - - - - - NNE 13 19 7 10 - - -
21/03:00pm - - - - - NNE 9 15 5 8 - - -
21/02:30pm - - - - - N 6 9 3 5 - - -
21/02:00pm - - - - - WSW 7 11 4 6 - - -
21/01:30pm - - - - - WSW 15 22 8 12 - - -
21/01:00pm - - - - - WSW 22 32 12 17 - - -
21/12:30pm - - - - - W 19 26 10 14 - - -
21/12:00pm - - - - - WSW 32 48 17 26 - - -
21/11:30am - - - - - WSW 35 50 19 27 - - -
21/11:00am - - - - - WSW 35 50 19 27 - - -
21/10:48am - - - - - WSW 32 52 17 28 - - -
21/10:30am - - - - - WSW 37 46 20 25 - - -
21/10:00am - - - - - WSW 41 54 22 29 - - -
21/09:48am - - - - - W 37 56 20 30 - - -
21/09:42am - - - - - W 35 41 19 22 - - -
21/09:38am - - - - - NW 37 50 20 27 - - -
21/09:30am - - - - - N 37 48 20 26 - - -
21/09:09am - - - - - N 32 50 17 27 - - -
21/09:00am - - - - - N 35 52 19 28 - - -
21/08:30am - - - - - NNE 41 52 22 28 - - -
21/08:09am - - - - - NNE 35 56 19 30 - - -
21/08:00am - - - - - NNE 33 46 18 25 - - -
21/07:30am - - - - - NNE 33 50 18 27 - - -
21/07:00am - - - - - NNE 35 56 19 30 - - -
21/06:54am - - - - - NNE 33 56 18 30 - - -
21/06:30am - - - - - NE 28 37 15 20 - - -
21/06:00am - - - - - NNE 26 33 14 18 - - -
21/05:30am - - - - - N 17 24 9 13 - - -
21/05:00am - - - - - NNE 24 32 13 17 - - -
21/04:30am - - - - - NNE 20 28 11 15 - - -
21/04:00am - - - - - NNE 24 30 13 16 - - -
21/03:30am - - - - - NNE 20 28 11 15 - - -
21/03:00am - - - - - NE 28 35 15 19 - - -
21/02:30am - - - - - NNE 20 24 11 13 - - -
21/02:00am - - - - - NNE 26 32 14 17 - - -
21/01:30am - - - - - NE 22 28 12 15 - - -
21/01:00am - - - - - NE 20 26 11 14 - - -
21/12:30am - - - - - NE 15 19 8 10 - - -
21/12:00am - - - - - N 11 15 6 8 - - -
 
Date/Time
WST
Tmp

°C
App
Tmp
°C
Dew
Point
°C
Rel
Hum
%
Delta-T

°C
Wind Press
QNH
hPa
Press
MSL
hPa
Rain
since
9 am
mm
Dir
 
Spd
km/h
Gust
km/h
Spd
kts
Gust
kts
20/11:30pm - - - - - NNE 9 11 5 6 - - -
20/11:00pm - - - - - NE 17 19 9 10 - - -
20/10:30pm - - - - - NNE 13 17 7 9 - - -
20/10:00pm - - - - - N 13 20 7 11 - - -
20/09:30pm - - - - - N 19 24 10 13 - - -
20/09:00pm - - - - - N 17 24 9 13 - - -
20/08:30pm - - - - - N 17 26 9 14 - - -
20/08:00pm - - - - - N 17 22 9 12 - - -
20/07:30pm - - - - - N 15 20 8 11 - - -
20/07:00pm - - - - - N 17 24 9 13 - - -
20/06:30pm - - - - - N 19 26 10 14 - - -
20/06:00pm - - - - - NNW 24 35 13 19 - - -
20/05:30pm - - - - - NNW 30 44 16 24 - - -
20/05:09pm - - - - - NNW 28 46 15 25 - - -
20/05:00pm - - - - - NNW 30 44 16 24 - - -
20/04:30pm - - - - - NW 26 41 14 22 - - -
20/04:00pm - - - - - NW 22 33 12 18 - - -
20/03:30pm - - - - - NW 26 37 14 20 - - -
20/03:00pm - - - - - WNW 32 43 17 23 - - -
20/02:30pm - - - - - N 30 50 16 27 - - -

Latest Capital City Observations: Canberra | Sydney | Melbourne | Brisbane | Adelaide | Perth | Hobart | Darwin

Other Formats:

Comma delimited format used in spreadsheet applications
http://www.bom.gov.au/fwo/IDW60901/IDW60901.95620.axf

JavaScript Object Notation format (JSON) in row-major order
http://www.bom.gov.au/fwo/IDW60901/IDW60901.95620.json